Time;durP1;ratioP1;P1;durP2;ratioP2;P2;SDS_P1;SDS_P2;PMS_P1;PMS_P2;Temp;Humidity;BMP_temperature;BMP_pressure;BME280_temperature;BME280_humidity;BME280_pressure;Samples;Min_cycle;Max_cycle;Signal;HPM_P1;HPM_P2
2021/06/10 00:02:09;;;;;;;30.42;20.55;;;17.60;99.90;;;;;;5009480;28;20071;-62
2021/06/10 00:04:36;;;;;;;30.38;20.48;;;17.60;99.90;;;;;;5009940;28;20056;-62
2021/06/10 00:07:03;;;;;;;28.67;20.10;;;17.60;99.90;;;;;;5009739;28;20099;-62
2021/06/10 00:09:29;;;;;;;28.65;20.02;;;17.50;99.90;;;;;;5008597;28;20046;-62
2021/06/10 00:11:57;;;;;;;27.80;20.45;;;17.60;99.90;;;;;;5007564;28;20494;-62
2021/06/10 00:14:24;;;;;;;31.05;20.83;;;17.60;99.90;;;;;;5009185;28;20088;-62
2021/06/10 00:16:50;;;;;;;30.80;21.15;;;17.50;99.90;;;;;;5009241;28;20088;-62
2021/06/10 00:19:17;;;;;;;24.55;18.75;;;17.50;99.90;;;;;;5009416;28;20049;-62
2021/06/10 00:21:44;;;;;;;27.58;20.00;;;17.50;99.90;;;;;;5007991;28;20410;-62
2021/06/10 00:24:11;;;;;;;26.15;19.45;;;17.50;99.90;;;;;;5008841;28;20528;-62
2021/06/10 00:26:38;;;;;;;26.92;18.88;;;17.50;99.90;;;;;;5008651;28;20057;-62
2021/06/10 00:29:06;;;;;;;26.00;19.10;;;17.40;99.90;;;;;;5008470;28;20053;-62
2021/06/10 00:31:33;;;;;;;30.73;19.23;;;17.40;99.90;;;;;;5007800;28;20080;-62
2021/06/10 00:33:59;;;;;;;26.92;19.95;;;17.40;99.90;;;;;;5008951;28;20076;-62
2021/06/10 00:36:26;;;;;;;29.92;20.67;;;17.40;99.90;;;;;;5009275;28;20582;-62
2021/06/10 00:38:52;;;;;;;28.02;21.58;;;17.50;99.90;;;;;;5007850;28;20080;-62
2021/06/10 00:41:19;;;;;;;32.05;19.67;;;17.40;99.90;;;;;;5008043;28;20108;-62
2021/06/10 00:43:46;;;;;;;28.67;21.10;;;17.30;99.90;;;;;;5008679;28;20060;-62
2021/06/10 00:46:14;;;;;;;30.40;20.05;;;17.30;99.90;;;;;;5009033;28;20096;-62
2021/06/10 00:48:41;;;;;;;32.35;21.75;;;17.20;99.90;;;;;;5008008;28;20468;-62
2021/06/10 00:51:08;;;;;;;40.90;24.65;;;17.20;99.90;;;;;;5007701;28;20049;-62
2021/06/10 00:53:35;;;;;;;38.70;24.38;;;17.20;99.90;;;;;;5008109;28;20096;-62
2021/06/10 00:56:05;;;;;;;36.28;22.95;;;17.30;99.90;;;;;;5008612;28;20045;-64
2021/06/10 00:58:32;;;;;;;33.33;22.63;;;17.10;99.90;;;;;;5008593;28;20056;-64
2021/06/10 01:01:01;;;;;;;32.03;22.02;;;17.10;99.90;;;;;;5007849;28;20143;-64
2021/06/10 01:03:29;;;;;;;33.20;21.90;;;17.10;99.90;;;;;;5008563;28;20042;-64
2021/06/10 01:05:58;;;;;;;34.30;21.73;;;17.10;99.90;;;;;;5007750;28;20045;-64
2021/06/10 01:08:34;;;;;;;31.67;22.00;;;17.00;99.90;;;;;;5008293;28;20045;-64
2021/06/10 01:11:12;;;;;;;31.92;21.92;;;17.00;99.90;;;;;;5007977;28;20100;-64
2021/06/10 01:13:46;;;;;;;33.58;22.90;;;17.00;99.90;;;;;;5008752;28;20057;-64
2021/06/10 01:16:19;;;;;;;33.88;22.23;;;17.00;99.90;;;;;;5008585;28;20068;-64
2021/06/10 01:18:48;;;;;;;28.67;20.13;;;16.90;99.90;;;;;;5007350;28;20145;-64
2021/06/10 01:21:16;;;;;;;31.42;21.05;;;16.90;99.90;;;;;;5007026;28;20096;-63
2021/06/10 01:24:01;;;;;;;28.73;19.30;;;16.90;99.90;;;;;;5007721;28;20095;-63
2021/06/10 01:26:34;;;;;;;28.15;19.67;;;16.80;99.90;;;;;;5008886;28;20085;-63
2021/06/10 01:29:05;;;;;;;29.50;19.60;;;16.80;99.90;;;;;;5007286;28;20049;-63
2021/06/10 01:31:33;;;;;;;34.38;19.95;;;16.90;99.90;;;;;;5007273;28;20058;-63
2021/06/10 01:34:04;;;;;;;30.70;20.25;;;16.90;99.90;;;;;;5007865;28;20123;-64
2021/06/10 01:36:34;;;;;;;26.40;18.70;;;16.90;99.90;;;;;;5007618;28;20095;-64
2021/06/10 01:39:03;;;;;;;30.05;19.55;;;16.80;99.90;;;;;;5007621;28;20671;-64
2021/06/10 01:41:31;;;;;;;26.88;19.00;;;16.80;99.90;;;;;;5006996;28;20070;-63
2021/06/10 01:43:59;;;;;;;29.98;19.73;;;16.90;99.90;;;;;;5007953;28;20049;-63
2021/06/10 01:46:30;;;;;;;30.85;21.38;;;16.90;99.90;;;;;;5007791;28;20063;-64
2021/06/10 01:48:57;;;;;;;31.08;20.30;;;17.00;99.90;;;;;;5008483;28;20080;-64
2021/06/10 01:51:26;;;;;;;34.13;21.60;;;17.00;99.90;;;;;;5006899;28;20129;-64
2021/06/10 01:53:54;;;;;;;33.30;19.80;;;17.00;99.90;;;;;;5006910;28;20414;-64
2021/06/10 01:56:24;;;;;;;31.40;21.55;;;17.00;99.90;;;;;;5008440;28;20161;-64
2021/06/10 01:58:52;;;;;;;26.88;19.50;;;17.00;99.90;;;;;;5006458;28;20103;-64
2021/06/10 02:01:20;;;;;;;32.63;21.20;;;17.20;99.90;;;;;;5005911;28;20053;-64
2021/06/10 02:03:49;;;;;;;35.42;21.50;;;17.10;99.90;;;;;;5006771;28;20521;-64
2021/06/10 02:06:18;;;;;;;33.25;22.05;;;17.10;99.90;;;;;;5007188;28;20523;-64
2021/06/10 02:08:47;;;;;;;43.15;27.08;;;17.20;99.90;;;;;;5007604;28;20544;-64
2021/06/10 02:11:15;;;;;;;36.85;23.80;;;17.20;99.90;;;;;;5006468;28;20052;-64
2021/06/10 02:13:44;;;;;;;42.42;24.45;;;17.20;99.90;;;;;;5006521;28;20057;-64
2021/06/10 02:16:12;;;;;;;73.82;28.65;;;17.20;99.90;;;;;;5007709;28;20045;-64
2021/06/10 02:18:40;;;;;;;107.10;30.60;;;17.30;99.90;;;;;;5007115;28;20056;-64
2021/06/10 02:21:09;;;;;;;50.08;26.92;;;17.20;99.90;;;;;;5006512;28;20084;-64
2021/06/10 02:23:37;;;;;;;78.47;28.77;;;17.20;99.90;;;;;;5006598;28;20123;-63
2021/06/10 02:26:04;;;;;;;84.10;30.50;;;17.20;99.90;;;;;;5007401;28;20910;-64
2021/06/10 02:28:31;;;;;;;84.68;29.90;;;17.20;99.90;;;;;;5008191;28;20282;-63
2021/06/10 02:30:58;;;;;;;68.18;29.13;;;17.20;99.90;;;;;;5006549;28;20417;-63
2021/06/10 02:33:25;;;;;;;55.15;27.63;;;17.20;99.90;;;;;;5007152;28;20095;-64
2021/06/10 02:35:52;;;;;;;112.05;28.85;;;17.20;99.90;;;;;;5006690;28;20418;-63
2021/06/10 02:38:20;;;;;;;111.45;26.05;;;17.20;99.90;;;;;;5007405;28;20119;-64
2021/06/10 02:40:51;;;;;;;100.32;26.90;;;17.10;99.90;;;;;;5006421;28;20069;-63
2021/06/10 02:43:18;;;;;;;69.10;26.17;;;17.00;99.90;;;;;;5007654;28;20069;-63
2021/06/10 02:45:46;;;;;;;85.05;27.20;;;17.10;99.90;;;;;;5006931;28;20556;-64
2021/06/10 02:48:13;;;;;;;177.88;32.17;;;17.10;99.90;;;;;;5006623;28;20061;-63
2021/06/10 02:50:42;;;;;;;232.05;32.25;;;17.00;99.90;;;;;;5008409;28;20052;-63
2021/06/10 02:53:15;;;;;;;214.60;30.98;;;17.00;99.90;;;;;;5010566;28;20049;-64
2021/06/10 02:55:44;;;;;;;106.50;30.50;;;17.00;99.90;;;;;;5009275;28;20869;-63
2021/06/10 02:58:12;;;;;;;287.88;37.67;;;17.00;99.90;;;;;;5010720;28;20072;-64
2021/06/10 03:00:40;;;;;;;378.27;36.88;;;17.00;99.90;;;;;;5009344;28;20053;-63
2021/06/10 03:03:10;;;;;;;164.60;30.27;;;16.80;99.90;;;;;;5010384;28;20505;-63
2021/06/10 03:05:38;;;;;;;150.43;30.88;;;16.90;99.90;;;;;;5010488;28;20084;-63
2021/06/10 03:08:05;;;;;;;166.45;31.00;;;16.90;99.90;;;;;;5010400;28;20060;-64
2021/06/10 03:10:33;;;;;;;252.63;33.20;;;16.90;99.90;;;;;;5009206;28;20457;-64
2021/06/10 03:13:02;;;;;;;111.75;30.25;;;16.80;99.90;;;;;;5009826;28;21093;-63
2021/06/10 03:15:31;;;;;;;99.10;27.83;;;16.90;99.90;;;;;;5010047;28;20049;-63
2021/06/10 03:17:59;;;;;;;218.05;33.05;;;17.00;99.90;;;;;;5009758;28;20863;-63
2021/06/10 03:20:26;;;;;;;102.00;26.65;;;17.00;99.90;;;;;;5009450;28;20049;-63
2021/06/10 03:22:53;;;;;;;132.88;26.90;;;17.00;99.90;;;;;;5009786;28;20060;-64
2021/06/10 03:25:21;;;;;;;164.73;28.35;;;16.90;99.90;;;;;;5009694;28;20050;-63
2021/06/10 03:27:48;;;;;;;140.73;29.20;;;17.00;99.90;;;;;;5009609;28;20053;-63
2021/06/10 03:30:18;;;;;;;291.58;36.92;;;17.10;99.90;;;;;;5008329;28;20509;-64
2021/06/10 03:32:45;;;;;;;134.75;28.00;;;17.10;99.90;;;;;;5009770;28;20103;-64
2021/06/10 03:35:12;;;;;;;130.82;28.42;;;16.90;99.90;;;;;;5009688;28;20049;-64
2021/06/10 03:37:40;;;;;;;134.27;29.05;;;16.90;99.90;;;;;;5009705;28;20372;-64
2021/06/10 03:40:09;;;;;;;69.47;22.50;;;16.90;99.90;;;;;;5008373;28;20096;-64
2021/06/10 03:42:37;;;;;;;56.05;21.48;;;16.90;99.90;;;;;;5009059;28;20486;-64
2021/06/10 03:45:05;;;;;;;443.35;38.28;;;16.70;99.90;;;;;;5009590;28;20050;-64
2021/06/10 03:47:33;;;;;;;113.07;24.00;;;16.60;99.90;;;;;;5009262;28;20655;-64
2021/06/10 03:50:00;;;;;;;53.33;20.65;;;16.60;99.90;;;;;;5008210;28;20077;-64
2021/06/10 03:52:27;;;;;;;63.38;22.15;;;16.80;99.90;;;;;;5009219;28;20049;-64
2021/06/10 03:54:57;;;;;;;56.17;20.98;;;16.80;99.90;;;;;;5009562;28;20220;-64
2021/06/10 03:57:23;;;;;;;126.30;25.83;;;16.90;99.90;;;;;;5008785;28;20704;-64
2021/06/10 03:59:50;;;;;;;135.52;27.08;;;16.80;99.90;;;;;;5008274;28;20930;-64
2021/06/10 04:02:17;;;;;;;88.70;24.70;;;16.90;99.90;;;;;;5008373;28;20046;-64
2021/06/10 04:04:45;;;;;;;73.85;22.75;;;16.90;99.90;;;;;;5008855;28;20076;-64
2021/06/10 04:07:11;;;;;;;55.97;22.30;;;16.90;99.90;;;;;;5009205;28;20049;-63
2021/06/10 04:09:38;;;;;;;110.72;21.83;;;16.90;99.90;;;;;;5008430;28;20049;-63
2021/06/10 04:12:07;;;;;;;86.07;21.42;;;17.00;99.90;;;;;;5007834;28;20059;-63
2021/06/10 04:14:34;;;;;;;69.60;21.67;;;16.80;99.90;;;;;;5009603;28;20065;-63
2021/06/10 04:17:00;;;;;;;81.28;22.63;;;16.90;99.90;;;;;;5009450;28;20052;-65
2021/06/10 04:19:27;;;;;;;40.58;21.15;;;17.00;99.90;;;;;;5009835;28;20045;-64
2021/06/10 04:21:55;;;;;;;47.25;19.90;;;17.00;99.90;;;;;;5012346;28;20713;-64
2021/06/10 04:24:21;;;;;;;74.18;20.98;;;17.00;99.90;;;;;;5012315;28;20056;-64
2021/06/10 04:26:48;;;;;;;62.70;19.65;;;17.00;99.90;;;;;;5011496;28;20060;-64
2021/06/10 04:29:14;;;;;;;46.20;20.38;;;17.00;99.90;;;;;;5011960;28;20046;-64
2021/06/10 04:31:41;;;;;;;156.35;23.35;;;17.00;99.90;;;;;;5009399;28;20376;-64
2021/06/10 04:34:08;;;;;;;169.45;24.63;;;16.90;99.90;;;;;;5009674;28;20049;-64
2021/06/10 04:36:34;;;;;;;42.20;20.15;;;16.90;99.90;;;;;;5009357;28;20119;-64
2021/06/10 04:39:03;;;;;;;145.35;26.30;;;16.90;99.90;;;;;;5008489;28;21002;-64
2021/06/10 04:41:30;;;;;;;241.15;29.60;;;16.90;99.90;;;;;;5008339;28;20182;-64
2021/06/10 04:43:56;;;;;;;375.25;39.53;;;17.00;99.90;;;;;;5007991;28;20823;-64
2021/06/10 04:46:23;;;;;;;147.00;28.27;;;17.00;99.90;;;;;;5008332;28;20415;-64
2021/06/10 04:48:49;;;;;;;63.20;21.45;;;16.80;99.90;;;;;;5007612;28;20132;-64
2021/06/10 04:51:16;;;;;;;85.63;23.45;;;16.90;99.90;;;;;;5007862;28;20079;-65
2021/06/10 04:53:45;;;;;;;68.10;23.65;;;17.00;99.90;;;;;;5008050;28;20085;-64
2021/06/10 04:56:14;;;;;;;46.30;20.67;;;17.00;99.90;;;;;;5008012;28;20146;-64
2021/06/10 04:58:41;;;;;;;62.75;21.38;;;17.00;99.90;;;;;;5008803;28;20160;-64
2021/06/10 05:01:07;;;;;;;62.67;22.98;;;17.00;99.90;;;;;;5007802;28;20052;-64
2021/06/10 05:03:33;;;;;;;63.50;23.40;;;17.00;99.90;;;;;;5009207;28;20053;-65
2021/06/10 05:06:00;;;;;;;34.50;21.05;;;17.00;99.90;;;;;;5012855;28;20510;-65
2021/06/10 05:08:26;;;;;;;77.10;23.02;;;17.00;99.90;;;;;;5012555;28;20049;-63
2021/06/10 05:10:54;;;;;;;62.75;24.70;;;17.10;99.90;;;;;;5011240;28;20068;-64
2021/06/10 05:13:21;;;;;;;89.10;27.42;;;17.00;99.90;;;;;;5010657;28;20053;-64
2021/06/10 05:15:48;;;;;;;79.65;25.30;;;17.10;99.90;;;;;;5010314;28;20901;-64
2021/06/10 05:18:14;;;;;;;180.82;32.08;;;17.00;99.90;;;;;;5010636;28;20045;-64
2021/06/10 05:20:41;;;;;;;86.35;26.17;;;16.80;99.90;;;;;;5009689;28;20064;-64
2021/06/10 05:23:07;;;;;;;62.22;24.80;;;16.80;99.90;;;;;;5010930;28;20406;-63
2021/06/10 05:25:34;;;;;;;65.35;23.45;;;16.90;99.90;;;;;;5010924;28;20536;-64
2021/06/10 05:28:00;;;;;;;99.95;26.08;;;17.00;99.90;;;;;;5010852;28;20350;-63
2021/06/10 05:30:28;;;;;;;38.35;22.48;;;17.00;99.90;;;;;;5010284;28;20079;-63
2021/06/10 05:32:55;;;;;;;115.00;23.38;;;16.90;99.90;;;;;;5010346;28;20050;-63
2021/06/10 05:35:22;;;;;;;45.38;22.23;;;16.90;99.90;;;;;;5010622;28;20076;-63
2021/06/10 05:37:48;;;;;;;57.30;22.85;;;17.00;99.90;;;;;;5010375;28;20053;-63
2021/06/10 05:40:15;;;;;;;49.13;22.58;;;17.00;99.90;;;;;;5008859;28;20084;-63
2021/06/10 05:42:42;;;;;;;73.35;23.55;;;16.90;99.90;;;;;;5007817;28;20057;-64
2021/06/10 05:45:09;;;;;;;36.88;21.20;;;16.80;99.90;;;;;;5008394;28;20053;-63
2021/06/10 05:47:37;;;;;;;37.95;22.63;;;16.90;99.90;;;;;;5007264;28;20103;-63
2021/06/10 05:50:05;;;;;;;49.58;21.67;;;16.90;99.90;;;;;;5007423;28;20049;-63
2021/06/10 05:52:32;;;;;;;40.58;21.00;;;17.00;99.90;;;;;;5008003;28;20056;-64
2021/06/10 05:54:58;;;;;;;112.38;24.92;;;17.00;99.90;;;;;;5008774;28;20368;-64
2021/06/10 05:57:25;;;;;;;63.10;21.15;;;16.90;99.90;;;;;;5009045;28;20089;-64
2021/06/10 05:59:52;;;;;;;45.80;23.00;;;17.00;99.90;;;;;;5007221;28;20056;-64
2021/06/10 06:02:18;;;;;;;27.00;19.58;;;17.20;99.90;;;;;;5007197;28;20081;-64
2021/06/10 06:04:46;;;;;;;30.92;20.65;;;17.30;99.90;;;;;;5006930;28;20053;-64
2021/06/10 06:07:13;;;;;;;29.45;20.77;;;17.40;99.90;;;;;;5007698;28;20046;-64
2021/06/10 06:09:39;;;;;;;54.13;23.92;;;17.50;99.90;;;;;;5007484;28;20080;-65
2021/06/10 06:12:08;;;;;;;39.17;23.45;;;17.60;99.90;;;;;;5008098;28;20522;-65
2021/06/10 06:14:37;;;;;;;44.00;24.02;;;17.60;99.90;;;;;;5008852;28;20532;-65
2021/06/10 06:17:05;;;;;;;33.58;22.67;;;17.70;99.90;;;;;;5008560;28;20452;-65
2021/06/10 06:19:32;;;;;;;33.53;22.20;;;17.70;99.90;;;;;;5008629;28;20053;-64
2021/06/10 06:22:00;;;;;;;39.00;22.90;;;17.90;99.90;;;;;;5007061;28;20049;-64
2021/06/10 06:24:28;;;;;;;34.17;22.27;;;17.90;99.90;;;;;;5010050;28;20084;-64
2021/06/10 06:26:54;;;;;;;28.90;21.10;;;17.90;99.90;;;;;;5014466;28;20057;-64
2021/06/10 06:29:21;;;;;;;32.65;21.45;;;18.00;99.90;;;;;;5011915;28;20045;-64
2021/06/10 06:31:47;;;;;;;32.03;21.58;;;18.30;99.90;;;;;;5011179;28;20080;-65
2021/06/10 06:34:14;;;;;;;27.77;19.85;;;18.30;99.90;;;;;;5011808;28;20041;-63
2021/06/10 06:36:40;;;;;;;31.50;20.67;;;18.50;99.90;;;;;;5010868;28;20089;-64
2021/06/10 06:39:08;;;;;;;30.77;21.13;;;18.70;99.90;;;;;;5011532;28;20064;-64
2021/06/10 06:41:36;;;;;;;27.27;20.08;;;19.00;99.90;;;;;;5009897;28;20057;-64
2021/06/10 06:44:02;;;;;;;30.67;22.17;;;19.10;99.90;;;;;;5010834;28;20337;-64
2021/06/10 06:46:29;;;;;;;29.30;21.23;;;19.30;99.90;;;;;;5010694;28;20564;-64
2021/06/10 06:48:55;;;;;;;34.13;23.58;;;19.40;99.90;;;;;;5010424;28;21135;-64
2021/06/10 06:51:22;;;;;;;33.38;23.23;;;19.50;99.90;;;;;;5009823;28;20046;-64
2021/06/10 06:53:50;;;;;;;45.80;28.02;;;19.60;99.90;;;;;;5010633;28;20049;-64
2021/06/10 06:56:18;;;;;;;43.17;27.60;;;19.50;99.90;;;;;;5010546;28;20049;-64
2021/06/10 06:58:45;;;;;;;45.33;28.38;;;19.50;99.90;;;;;;5009914;28;20056;-64
2021/06/10 07:01:11;;;;;;;41.45;28.27;;;19.70;99.90;;;;;;5009883;28;20045;-64
2021/06/10 07:03:38;;;;;;;43.20;27.77;;;19.70;99.90;;;;;;5009833;28;20061;-64
2021/06/10 07:06:04;;;;;;;44.83;28.55;;;19.70;99.90;;;;;;5010377;28;20588;-61
2021/06/10 07:08:31;;;;;;;45.42;30.13;;;19.90;99.90;;;;;;5010642;28;20532;-62
2021/06/10 07:10:58;;;;;;;45.75;30.75;;;20.00;99.90;;;;;;5009779;28;20057;-62
2021/06/10 07:13:26;;;;;;;44.63;29.40;;;20.10;99.90;;;;;;5010280;28;20057;-62
2021/06/10 07:15:53;;;;;;;43.83;28.67;;;20.30;99.90;;;;;;5010107;28;20064;-62
2021/06/10 07:18:20;;;;;;;44.10;28.80;;;20.30;99.90;;;;;;5010366;28;20050;-62
2021/06/10 07:20:46;;;;;;;44.15;29.52;;;20.60;99.90;;;;;;5009976;28;20049;-62
2021/06/10 07:23:13;;;;;;;41.35;26.88;;;20.60;99.90;;;;;;5010088;28;20575;-62
2021/06/10 07:25:39;;;;;;;41.22;28.90;;;20.80;99.90;;;;;;5009387;28;20050;-62
2021/06/10 07:28:06;;;;;;;43.83;26.50;;;21.10;99.90;;;;;;5010102;28;20088;-63
2021/06/10 07:30:35;;;;;;;36.35;25.17;;;21.30;99.90;;;;;;5009297;28;20060;-62
2021/06/10 07:33:02;;;;;;;35.25;23.70;;;21.20;99.90;;;;;;5009475;28;20050;-62
2021/06/10 07:35:30;;;;;;;33.95;24.92;;;21.20;99.90;;;;;;5008621;28;20123;-62
2021/06/10 07:37:57;;;;;;;37.00;24.42;;;21.10;99.90;;;;;;5010215;28;20410;-62
2021/06/10 07:40:23;;;;;;;33.20;24.02;;;21.00;99.90;;;;;;5008875;28;20049;-62
2021/06/10 07:42:50;;;;;;;35.72;24.00;;;21.20;99.90;;;;;;5009903;28;20183;-62
2021/06/10 07:45:17;;;;;;;32.95;22.73;;;21.00;99.90;;;;;;5009588;28;20045;-62
2021/06/10 07:47:45;;;;;;;39.03;24.95;;;21.00;99.90;;;;;;5011382;28;20560;-62
2021/06/10 07:50:12;;;;;;;34.15;23.63;;;20.80;99.90;;;;;;5011173;28;20107;-62
2021/06/10 07:52:39;;;;;;;30.50;22.85;;;20.90;99.90;;;;;;5011629;28;20053;-61
2021/06/10 07:55:07;;;;;;;33.00;22.10;;;21.10;99.90;;;;;;5011721;28;20386;-62
2021/06/10 07:57:34;;;;;;;31.55;21.45;;;21.20;99.90;;;;;;5012144;28;20058;-62
2021/06/10 08:00:00;;;;;;;28.02;21.25;;;21.30;99.90;;;;;;5010233;28;20080;-62
2021/06/10 08:02:27;;;;;;;29.73;22.17;;;21.30;99.90;;;;;;5012288;28;20444;-62
2021/06/10 08:04:54;;;;;;;29.75;21.70;;;21.30;99.90;;;;;;5011448;28;20053;-62
2021/06/10 08:07:21;;;;;;;29.27;22.52;;;21.30;99.90;;;;;;5010320;28;20453;-62
2021/06/10 08:09:47;;;;;;;28.73;21.52;;;21.30;99.90;;;;;;5010323;28;20095;-62
2021/06/10 08:12:14;;;;;;;32.15;21.52;;;21.40;99.90;;;;;;5009755;28;20053;-62
2021/06/10 08:14:40;;;;;;;30.80;22.15;;;21.70;99.90;;;;;;5009824;28;20502;-62
2021/06/10 08:17:07;;;;;;;27.95;21.20;;;21.80;99.90;;;;;;5010148;28;20131;-61
2021/06/10 08:19:35;;;;;;;33.88;21.58;;;22.10;99.90;;;;;;5010073;28;20060;-62
2021/06/10 08:22:03;;;;;;;28.17;21.55;;;22.30;99.90;;;;;;5008428;28;20045;-62
2021/06/10 08:24:30;;;;;;;27.42;20.10;;;22.60;99.90;;;;;;5009455;28;20037;-62
2021/06/10 08:26:56;;;;;;;29.92;20.55;;;22.80;99.90;;;;;;5009760;28;20391;-62
2021/06/10 08:29:27;;;;;;;28.33;20.23;;;23.00;99.90;;;;;;5008898;28;20072;-62
2021/06/10 08:31:54;;;;;;;30.65;19.85;;;23.20;99.90;;;;;;5008177;28;20095;-61
2021/06/10 08:34:20;;;;;;;28.00;20.98;;;23.30;99.90;;;;;;5008174;28;20132;-62
2021/06/10 08:36:48;;;;;;;26.25;20.38;;;23.80;99.90;;;;;;5008510;28;20141;-62
2021/06/10 08:39:16;;;;;;;23.20;18.60;;;23.70;99.90;;;;;;5009013;28;20049;-61
2021/06/10 08:41:44;;;;;;;26.40;17.17;;;24.00;99.90;;;;;;5007750;28;20514;-62
2021/06/10 08:44:11;;;;;;;25.15;15.75;;;24.70;99.90;;;;;;5008410;28;20535;-62
2021/06/10 08:46:38;;;;;;;20.55;14.23;;;25.00;99.90;;;;;;5008900;28;20053;-62
2021/06/10 08:49:06;;;;;;;23.35;14.85;;;25.20;99.90;;;;;;5007966;28;20517;-62
2021/06/10 08:51:32;;;;;;;17.23;12.27;;;25.30;99.90;;;;;;5007363;28;20132;-62
2021/06/10 08:53:59;;;;;;;16.15;11.10;;;25.60;99.90;;;;;;5007999;28;20499;-62
2021/06/10 08:56:30;;;;;;;12.88;9.43;;;26.10;99.90;;;;;;5008560;28;20542;-62
2021/06/10 08:58:57;;;;;;;11.70;9.18;;;26.60;99.90;;;;;;5008735;28;20049;-62
2021/06/10 09:01:23;;;;;;;11.13;8.90;;;26.90;99.90;;;;;;5007029;28;20466;-62
2021/06/10 09:03:50;;;;;;;10.27;8.23;;;27.40;99.90;;;;;;5008513;28;20049;-62
2021/06/10 09:06:18;;;;;;;11.10;7.88;;;27.80;99.90;;;;;;5008886;28;20556;-62
2021/06/10 09:08:46;;;;;;;8.23;6.32;;;28.30;99.90;;;;;;5008181;28;20053;-62
2021/06/10 09:11:15;;;;;;;10.63;7.18;;;28.70;99.90;;;;;;5007430;28;20056;-62
2021/06/10 09:13:45;;;;;;;8.98;6.55;;;28.70;99.90;;;;;;5008092;28;20083;-62
2021/06/10 09:16:25;;;;;;;11.77;7.45;;;29.40;99.90;;;;;;5008259;28;20615;-62
2021/06/10 09:18:55;;;;;;;11.35;7.57;;;30.10;99.90;;;;;;5008247;28;20517;-62
2021/06/10 09:21:31;;;;;;;11.82;8.55;;;30.50;99.90;;;;;;5008060;28;20049;-62
2021/06/10 09:24:14;;;;;;;9.35;7.15;;;31.00;99.90;;;;;;5008025;28;20517;-62
2021/06/10 09:26:40;;;;;;;10.55;7.32;;;31.10;99.90;;;;;;5007471;28;20045;-62
2021/06/10 09:29:08;;;;;;;11.68;7.00;;;31.20;99.90;;;;;;5008452;28;20049;-62
2021/06/10 09:31:36;;;;;;;9.60;6.28;;;31.60;99.90;;;;;;5007112;28;20049;-62
2021/06/10 09:34:07;;;;;;;9.20;6.13;;;31.80;99.90;;;;;;5008106;28;20316;-62
2021/06/10 09:36:40;;;;;;;8.55;6.32;;;32.10;99.90;;;;;;5008248;28;20426;-62
2021/06/10 09:39:09;;;;;;;10.77;6.38;;;32.30;99.90;;;;;;5009371;28;20478;-62
2021/06/10 09:41:58;;;;;;;8.02;5.88;;;32.40;99.90;;;;;;5007598;28;21126;-62
2021/06/10 09:44:39;;;;;;;7.40;5.47;;;32.80;99.90;;;;;;5008041;28;20049;-62
2021/06/10 09:47:06;;;;;;;8.55;5.75;;;33.00;98.40;;;;;;5008132;28;20050;-62
2021/06/10 09:49:32;;;;;;;9.95;6.05;;;32.90;98.30;;;;;;5007523;28;20057;-62
2021/06/10 09:51:59;;;;;;;9.70;6.03;;;33.50;98.00;;;;;;5007464;28;20083;-62
2021/06/10 09:54:43;;;;;;;6.95;5.95;;;32.50;96.80;;;;;;5007719;28;20041;-62
2021/06/10 09:57:12;;;;;;;10.57;5.30;;;32.20;97.50;;;;;;5008215;28;20084;-62
2021/06/10 09:59:49;;;;;;;7.38;5.45;;;33.40;97.40;;;;;;5009975;28;20045;-62
2021/06/10 10:02:26;;;;;;;6.75;5.30;;;33.70;96.40;;;;;;5011741;28;20571;-62
2021/06/10 10:05:05;;;;;;;7.63;5.80;;;33.80;96.00;;;;;;5012232;28;20045;-62
2021/06/10 10:07:35;;;;;;;7.22;6.00;;;33.90;95.50;;;;;;5012040;28;20049;-62
2021/06/10 10:10:04;;;;;;;9.48;6.65;;;34.10;96.00;;;;;;5011087;28;20052;-63
2021/06/10 10:12:32;;;;;;;7.35;5.85;;;34.30;95.50;;;;;;5011256;28;20127;-63
2021/06/10 10:15:00;;;;;;;9.90;6.85;;;34.70;94.60;;;;;;5011873;28;20110;-63
2021/06/10 10:17:28;;;;;;;8.02;6.10;;;34.90;94.90;;;;;;5011432;28;20049;-62
2021/06/10 10:19:56;;;;;;;7.45;6.07;;;35.00;93.70;;;;;;5011188;28;20050;-63
2021/06/10 10:22:23;;;;;;;7.78;5.68;;;34.80;93.80;;;;;;5011977;28;20441;-62
2021/06/10 10:24:53;;;;;;;7.00;6.10;;;34.80;94.20;;;;;;5011283;28;20870;-63
2021/06/10 10:27:19;;;;;;;8.15;5.72;;;35.00;93.10;;;;;;5012088;28;20053;-63
2021/06/10 10:29:48;;;;;;;9.07;6.45;;;34.50;92.70;;;;;;5010251;28;20085;-63
2021/06/10 10:32:21;;;;;;;7.07;5.63;;;34.80;92.40;;;;;;5012311;28;20076;-62
2021/06/10 10:34:48;;;;;;;8.55;5.55;;;35.00;93.50;;;;;;5011220;28;20128;-63
2021/06/10 10:37:20;;;;;;;6.95;6.18;;;35.20;91.20;;;;;;5010862;28;20417;-63
2021/06/10 10:39:47;;;;;;;9.00;5.78;;;35.20;91.70;;;;;;5010805;28;20092;-63
2021/06/10 10:42:29;;;;;;;8.10;5.93;;;35.00;91.30;;;;;;5011502;28;20616;-63
2021/06/10 10:45:11;;;;;;;7.25;5.95;;;34.50;91.60;;;;;;5011173;28;20395;-62
2021/06/10 10:47:45;;;;;;;10.80;6.43;;;34.70;92.30;;;;;;5010566;28;20073;-63
2021/06/10 10:50:18;;;;;;;6.88;6.13;;;34.80;91.80;;;;;;5010575;28;20042;-62
2021/06/10 10:52:56;;;;;;;9.32;6.05;;;34.70;91.10;;;;;;5011106;28;20072;-63
2021/06/10 10:55:30;;;;;;;7.20;6.32;;;35.00;91.40;;;;;;5011482;28;20433;-62
2021/06/10 10:58:07;;;;;;;10.75;6.30;;;34.60;90.90;;;;;;5010797;28;20065;-63
2021/06/10 11:00:55;;;;;;;10.77;6.63;;;33.80;92.10;;;;;;5010320;28;20088;-63
2021/06/10 11:03:42;;;;;;;10.00;5.97;;;33.90;92.00;;;;;;5011475;28;20056;-63
2021/06/10 11:06:36;;;;;;;8.80;6.32;;;33.70;91.90;;;;;;5010768;28;20061;-63
2021/06/10 11:09:11;;;;;;;7.05;5.82;;;34.40;91.00;;;;;;5004634;28;20053;-63
2021/06/10 11:11:55;;;;;;;8.60;6.20;;;34.40;90.10;;;;;;5008009;28;20076;-63
2021/06/10 11:14:45;;;;;;;10.93;5.70;;;34.50;92.30;;;;;;5010316;28;20049;-63
2021/06/10 11:17:25;;;;;;;8.30;6.38;;;34.80;90.80;;;;;;5012390;28;20053;-63
2021/06/10 11:19:56;;;;;;;6.70;5.53;;;35.10;90.80;;;;;;5010225;28;20085;-63
2021/06/10 11:22:41;;;;;;;7.35;5.75;;;34.80;90.30;;;;;;5011735;28;20076;-63
2021/06/10 11:25:10;;;;;;;8.27;6.10;;;35.00;89.20;;;;;;5010573;28;20081;-63
2021/06/10 11:27:43;;;;;;;7.90;5.88;;;34.70;90.10;;;;;;5010945;28;20053;-63
2021/06/10 11:30:15;;;;;;;8.43;5.97;;;35.10;90.50;;;;;;5008846;28;20060;-63
2021/06/10 11:33:12;;;;;;;7.45;6.03;;;35.60;88.00;;;;;;5010565;28;20053;-63
2021/06/10 11:35:43;;;;;;;7.38;6.20;;;35.60;88.60;;;;;;4911068;29;20568;-63
2021/06/10 11:38:19;;;;;;;9.57;6.38;;;35.00;87.10;;;;;;4989728;28;20049;-63
2021/06/10 11:40:47;;;;;;;8.88;5.78;;;35.20;86.00;;;;;;5009061;28;20058;-63
2021/06/10 11:43:15;;;;;;;9.85;6.10;;;35.20;86.70;;;;;;5010400;28;20049;-63
2021/06/10 11:45:43;;;;;;;7.35;5.45;;;34.90;85.10;;;;;;5010255;28;20406;-63
2021/06/10 11:48:10;;;;;;;6.53;5.65;;;34.90;89.30;;;;;;5010514;28;20049;-64
2021/06/10 11:50:38;;;;;;;7.38;5.20;;;35.50;87.20;;;;;;5011316;28;20064;-63
2021/06/10 11:53:08;;;;;;;6.88;5.70;;;35.40;81.20;;;;;;5011620;28;20565;-63
2021/06/10 11:55:36;;;;;;;8.52;5.75;;;34.30;80.60;;;;;;5010126;28;20552;-63
2021/06/10 11:58:05;;;;;;;7.63;5.43;;;33.60;81.60;;;;;;5010958;28;20053;-63
2021/06/10 12:00:35;;;;;;;7.13;5.63;;;32.60;84.60;;;;;;5008528;28;20061;-63
2021/06/10 12:03:05;;;;;;;17.88;6.72;;;32.50;85.90;;;;;;5009489;28;20046;-63
2021/06/10 12:05:35;;;;;;;10.70;5.68;;;32.40;83.90;;;;;;5010209;28;20477;-63
2021/06/10 12:08:14;;;;;;;7.93;6.05;;;32.60;85.90;;;;;;5010455;28;20049;-63
2021/06/10 12:10:41;;;;;;;9.93;5.90;;;33.30;84.00;;;;;;5010341;28;20053;-63
2021/06/10 12:13:08;;;;;;;8.05;6.15;;;32.30;84.90;;;;;;5010958;28;20045;-64
2021/06/10 12:15:46;;;;;;;10.65;6.05;;;31.70;86.50;;;;;;5010575;28;20231;-63
2021/06/10 12:18:15;;;;;;;7.70;5.70;;;31.40;87.30;;;;;;5010423;28;20505;-63
2021/06/10 12:20:44;;;;;;;9.20;5.25;;;32.00;89.30;;;;;;5008854;28;20045;-63
2021/06/10 12:23:15;;;;;;;7.35;5.38;;;31.40;87.90;;;;;;5008739;28;20132;-63
2021/06/10 12:25:47;;;;;;;6.60;4.90;;;31.90;89.10;;;;;;5008710;28;20137;-63
2021/06/10 12:28:26;;;;;;;8.00;5.63;;;32.60;86.80;;;;;;5009440;28;20447;-63
2021/06/10 12:31:00;;;;;;;9.25;5.25;;;32.50;86.60;;;;;;5008714;28;20112;-63
2021/06/10 12:33:27;;;;;;;7.80;5.20;;;33.70;85.60;;;;;;5009529;28;20053;-63
2021/06/10 12:35:57;;;;;;;9.45;5.68;;;34.30;85.50;;;;;;5012619;28;20128;-63
2021/06/10 12:38:31;;;;;;;7.30;5.35;;;34.70;82.00;;;;;;5010886;28;20056;-63
2021/06/10 12:41:12;;;;;;;7.32;5.55;;;34.00;83.60;;;;;;5010750;28;20049;-63